createdAt,value
2022-10-23T00:01:22.931Z,35.72
2022-10-23T00:03:52.708Z,41.00
2022-10-23T00:06:20.359Z,41.92
2022-10-23T00:08:48.303Z,36.22
2022-10-23T00:11:16.854Z,39.78
2022-10-23T00:13:46.418Z,41.67
2022-10-23T00:16:14.252Z,44.38
2022-10-23T00:18:41.865Z,42.35
2022-10-23T00:21:10.221Z,41.45
2022-10-23T00:23:37.694Z,44.75
2022-10-23T00:26:05.771Z,37.22
2022-10-23T00:28:33.322Z,41.30
2022-10-23T00:31:04.012Z,38.55
2022-10-23T00:33:31.483Z,36.25
2022-10-23T00:35:58.979Z,41.00
2022-10-23T00:38:26.434Z,56.78
2022-10-23T00:40:53.933Z,44.63
2022-10-23T00:43:22.264Z,41.65
2022-10-23T00:45:49.702Z,47.38
2022-10-23T00:48:19.046Z,40.83
2022-10-23T00:50:47.455Z,44.67
2022-10-23T00:53:15.167Z,47.33
2022-10-23T00:55:46.710Z,42.85
2022-10-23T00:58:14.711Z,42.25
2022-10-23T01:00:44.449Z,36.10
2022-10-23T01:03:12.084Z,45.55
2022-10-23T01:05:45.065Z,46.72
2022-10-23T01:08:16.391Z,37.08
2022-10-23T01:10:46.005Z,45.08
2022-10-23T01:13:16.155Z,48.08
2022-10-23T01:15:45.722Z,39.40
2022-10-23T01:18:17.875Z,38.88
2022-10-23T01:20:47.849Z,46.17
2022-10-23T01:23:42.121Z,42.40
2022-10-23T01:26:19.337Z,36.47
2022-10-23T01:28:50.855Z,44.88
2022-10-23T01:31:19.802Z,48.00
2022-10-23T01:33:49.830Z,43.60
2022-10-23T01:36:18.063Z,41.25
2022-10-23T01:38:47.526Z,39.67
2022-10-23T01:41:17.288Z,47.42
2022-10-23T01:43:46.342Z,53.10
2022-10-23T01:46:17.199Z,46.47
2022-10-23T01:48:48.860Z,42.53
2022-10-23T01:51:17.045Z,48.50
2022-10-23T01:53:45.563Z,48.70
2022-10-23T01:56:15.945Z,46.28
2022-10-23T01:58:45.209Z,50.90
2022-10-23T02:01:14.032Z,44.33
2022-10-23T02:03:44.066Z,48.83
2022-10-23T02:06:11.746Z,44.35
2022-10-23T02:08:39.256Z,45.30
2022-10-23T02:11:08.908Z,47.10
2022-10-23T02:13:39.930Z,43.78
2022-10-23T02:16:12.447Z,55.72
2022-10-23T02:18:45.323Z,43.13
2022-10-23T02:21:15.003Z,43.17
2022-10-23T02:23:46.460Z,44.03
2022-10-23T02:26:17.055Z,50.13
2022-10-23T02:28:47.079Z,46.83
2022-10-23T02:31:17.380Z,47.63
2022-10-23T02:33:45.512Z,52.97
2022-10-23T02:36:14.783Z,51.58
2022-10-23T02:38:43.324Z,47.67
2022-10-23T02:41:17.682Z,45.47
2022-10-23T02:46:16.682Z,57.38
2022-10-23T02:48:46.873Z,48.45
2022-10-23T02:51:19.097Z,57.60
2022-10-23T02:53:50.223Z,57.00
2022-10-23T02:56:21.641Z,48.08
2022-10-23T02:58:54.946Z,49.63
2022-10-23T03:01:23.632Z,47.85
2022-10-23T03:03:52.701Z,47.83
2022-10-23T03:06:21.520Z,47.97
2022-10-23T03:08:50.912Z,55.03
2022-10-23T03:11:18.416Z,53.65
2022-10-23T03:13:45.938Z,60.05
2022-10-23T03:16:13.391Z,52.58
2022-10-23T03:18:40.861Z,56.90
2022-10-23T03:21:08.540Z,50.90
2022-10-23T03:23:37.358Z,50.00
2022-10-23T03:26:05.644Z,52.05
2022-10-23T03:28:33.258Z,55.28
2022-10-23T03:31:02.162Z,55.83
2022-10-23T03:33:29.654Z,58.25
2022-10-23T03:35:57.126Z,59.55
2022-10-23T03:38:24.643Z,59.67
2022-10-23T03:40:53.507Z,52.47
2022-10-23T03:43:20.999Z,60.25
2022-10-23T03:45:48.512Z,63.30
2022-10-23T03:48:15.947Z,64.93
2022-10-23T03:50:43.399Z,66.57
2022-10-23T03:53:10.890Z,63.92
2022-10-23T03:55:38.346Z,62.90
2022-10-23T03:58:07.150Z,56.05
2022-10-23T04:00:34.691Z,57.08
2022-10-23T04:03:02.169Z,57.33
2022-10-23T04:05:29.636Z,59.63
2022-10-23T04:07:58.087Z,53.63
2022-10-23T04:10:25.584Z,53.70
2022-10-23T04:12:53.018Z,57.15
2022-10-23T04:15:21.807Z,53.50
2022-10-23T04:17:49.293Z,50.38
2022-10-23T04:20:16.848Z,46.13
2022-10-23T04:22:44.631Z,45.60
2022-10-23T04:25:12.363Z,44.40
2022-10-23T04:27:39.922Z,46.00
2022-10-23T04:30:08.107Z,45.05
2022-10-23T04:32:36.988Z,41.05
2022-10-23T04:35:04.832Z,45.35
2022-10-23T04:37:32.326Z,39.17
2022-10-23T04:39:59.880Z,39.08
2022-10-23T04:45:00.435Z,39.78
2022-10-23T04:47:27.938Z,33.90
2022-10-23T04:49:56.746Z,37.55
2022-10-23T04:52:24.239Z,36.50
2022-10-23T04:54:51.793Z,31.73
2022-10-23T04:57:19.282Z,35.63
2022-10-23T04:59:46.758Z,27.95
2022-10-23T05:02:14.224Z,28.88
2022-10-23T05:04:41.786Z,27.30
2022-10-23T05:07:10.665Z,29.00
2022-10-23T05:09:38.195Z,34.33
2022-10-23T05:12:05.783Z,32.97
2022-10-23T05:14:33.278Z,29.83
2022-10-23T05:17:01.809Z,30.38
2022-10-23T05:19:30.964Z,25.85
2022-10-23T05:21:58.748Z,29.10
2022-10-23T05:24:27.726Z,32.03
2022-10-23T05:26:55.322Z,33.83
2022-10-23T05:29:23.050Z,31.27
2022-10-23T05:31:51.723Z,26.92
2022-10-23T05:34:20.572Z,27.80
2022-10-23T05:36:48.202Z,27.88
2022-10-23T05:39:15.741Z,30.33
2022-10-23T05:41:44.657Z,24.80
2022-10-23T05:44:12.127Z,28.38
2022-10-23T05:46:41.651Z,26.95
2022-10-23T05:49:09.179Z,29.30
2022-10-23T05:51:37.265Z,26.98
2022-10-23T05:54:07.748Z,27.77
2022-10-23T05:56:35.406Z,26.85
2022-10-23T05:59:04.541Z,30.02
2022-10-23T06:01:32.147Z,28.10
2022-10-23T06:04:00.117Z,25.17
2022-10-23T06:06:27.675Z,27.77
2022-10-23T06:08:55.772Z,25.92
2022-10-23T06:11:23.271Z,27.23
2022-10-23T06:13:50.796Z,26.52
2022-10-23T06:16:21.203Z,26.35
2022-10-23T06:18:49.052Z,31.23
2022-10-23T06:21:17.203Z,27.17
2022-10-23T06:23:45.327Z,41.97
2022-10-23T06:26:13.921Z,30.17
2022-10-23T06:28:41.721Z,30.98
2022-10-23T06:31:09.934Z,32.17
2022-10-23T06:33:38.789Z,29.77
2022-10-23T06:36:08.273Z,28.42
2022-10-23T06:38:37.436Z,34.95
2022-10-23T06:41:07.575Z,32.15
2022-10-23T06:43:35.338Z,30.08
2022-10-23T06:46:03.695Z,31.38
2022-10-23T06:48:31.909Z,37.30
2022-10-23T06:51:01.214Z,42.80
2022-10-23T06:53:28.700Z,40.22
2022-10-23T06:55:59.552Z,49.60
2022-10-23T06:58:27.114Z,48.25
2022-10-23T07:00:54.719Z,47.67
2022-10-23T07:03:22.579Z,48.85
2022-10-23T07:05:50.073Z,44.42
2022-10-23T07:08:19.029Z,39.63
2022-10-23T07:10:48.042Z,38.35
2022-10-23T07:13:15.625Z,37.33
2022-10-23T07:15:43.291Z,34.22
2022-10-23T07:18:14.606Z,36.67
2022-10-23T07:20:42.647Z,38.30
2022-10-23T07:23:10.779Z,36.42
2022-10-23T07:25:39.818Z,34.40
2022-10-23T07:28:07.514Z,36.40
2022-10-23T07:30:35.205Z,39.45
2022-10-23T07:33:02.852Z,39.92
2022-10-23T07:35:33.001Z,35.40
2022-10-23T07:38:09.943Z,30.63
2022-10-23T07:40:38.981Z,34.95
2022-10-23T07:43:06.620Z,35.78
2022-10-23T07:45:34.360Z,35.60
2022-10-23T07:48:02.127Z,40.38
2022-10-23T07:50:29.840Z,37.90
2022-10-23T07:52:58.683Z,37.05
2022-10-23T07:55:26.549Z,39.38
2022-10-23T07:58:00.294Z,35.05
2022-10-23T08:00:27.954Z,38.65
2022-10-23T08:02:56.776Z,39.53
2022-10-23T08:05:24.531Z,38.42
2022-10-23T08:07:52.197Z,40.50
2022-10-23T08:10:19.839Z,37.05
2022-10-23T08:12:50.201Z,35.55
2022-10-23T08:15:19.236Z,46.40
2022-10-23T08:17:46.915Z,38.33
2022-10-23T08:20:14.738Z,41.58
2022-10-23T08:22:42.429Z,35.75
2022-10-23T08:25:10.547Z,36.47
2022-10-23T08:27:39.286Z,39.80
2022-10-23T08:30:07.545Z,36.97
2022-10-23T08:32:36.574Z,34.95
2022-10-23T08:35:04.286Z,36.40
2022-10-23T08:37:31.975Z,37.03
2022-10-23T08:39:59.607Z,37.60
2022-10-23T08:42:28.062Z,36.13
2022-10-23T08:45:02.856Z,35.92
2022-10-23T08:47:36.274Z,38.85
2022-10-23T08:50:08.803Z,36.05
2022-10-23T08:52:38.416Z,32.53
2022-10-23T08:55:12.274Z,37.47
2022-10-23T08:57:44.539Z,37.97
2022-10-23T09:00:15.249Z,31.67
2022-10-23T09:02:44.618Z,38.85
2022-10-23T09:05:15.937Z,31.85
2022-10-23T09:07:51.412Z,33.15
2022-10-23T09:10:37.528Z,29.10
2022-10-23T09:13:12.673Z,35.65
2022-10-23T09:15:43.469Z,36.55
2022-10-23T09:18:13.618Z,35.95
2022-10-23T09:20:45.150Z,35.72
2022-10-23T09:23:16.509Z,47.40
2022-10-23T09:25:47.143Z,37.55
2022-10-23T09:28:18.964Z,34.42
2022-10-23T09:30:46.887Z,34.25
2022-10-23T09:33:15.604Z,36.10
2022-10-23T09:35:55.370Z,35.60
2022-10-23T09:38:30.389Z,39.50
2022-10-23T09:40:59.987Z,36.10
2022-10-23T09:43:30.307Z,37.17
2022-10-23T09:45:58.761Z,29.58
2022-10-23T09:48:26.568Z,40.28
2022-10-23T09:50:56.303Z,34.72
2022-10-23T09:53:30.131Z,28.92
2022-10-23T09:55:58.965Z,35.45
2022-10-23T09:58:35.052Z,32.95
2022-10-23T10:01:21.782Z,27.35
2022-10-23T10:03:50.119Z,27.15
2022-10-23T10:06:23.222Z,25.15
2022-10-23T10:08:52.868Z,31.60
2022-10-23T10:11:24.325Z,26.13
2022-10-23T10:14:01.842Z,27.05
2022-10-23T10:19:12.132Z,26.98
2022-10-23T10:21:45.326Z,22.52
2022-10-23T10:24:19.121Z,21.83
2022-10-23T10:26:58.577Z,30.35
2022-10-23T10:29:35.703Z,25.05
2022-10-23T10:32:07.253Z,25.42
2022-10-23T10:37:30.717Z,29.00
2022-10-23T10:40:01.208Z,25.03
2022-10-23T10:42:45.671Z,24.38
2022-10-23T10:45:34.298Z,28.50
2022-10-23T10:48:13.953Z,23.45
2022-10-23T10:50:44.990Z,25.83
2022-10-23T10:53:19.411Z,19.98
2022-10-23T10:58:17.662Z,22.73
2022-10-23T11:00:51.508Z,25.23
2022-10-23T11:03:25.447Z,19.17
2022-10-23T11:05:54.660Z,15.77
2022-10-23T11:08:28.372Z,21.58
2022-10-23T11:10:58.849Z,15.85
2022-10-23T11:13:36.730Z,14.60
2022-10-23T11:16:06.936Z,16.98
2022-10-23T11:18:35.620Z,12.88
2022-10-23T11:21:10.392Z,13.45
2022-10-23T11:24:01.410Z,14.50
2022-10-23T11:26:36.726Z,14.93
2022-10-23T11:29:14.207Z,15.52
2022-10-23T11:31:46.706Z,16.00
2022-10-23T11:34:24.474Z,18.88
2022-10-23T11:36:55.991Z,14.18
2022-10-23T11:39:25.156Z,10.80
2022-10-23T11:41:55.549Z,15.18
2022-10-23T11:44:24.875Z,13.20
2022-10-23T11:47:00.776Z,12.25
2022-10-23T11:49:28.453Z,10.80
2022-10-23T11:52:02.584Z,8.95
2022-10-23T11:54:30.445Z,11.65
2022-10-23T11:57:11.965Z,9.65
2022-10-23T11:59:52.197Z,9.70
2022-10-23T12:02:24.145Z,7.85
2022-10-23T12:04:52.894Z,9.60
2022-10-23T12:07:23.531Z,11.43
2022-10-23T12:09:54.275Z,10.95
2022-10-23T12:12:31.137Z,6.45
2022-10-23T12:15:20.020Z,7.97
2022-10-23T12:17:48.635Z,7.13
2022-10-23T12:20:20.494Z,5.55
2022-10-23T12:22:51.861Z,5.55
2022-10-23T12:25:24.519Z,6.70
2022-10-23T12:27:57.756Z,5.72
2022-10-23T12:30:30.135Z,5.25
2022-10-23T12:33:12.607Z,4.85
2022-10-23T12:35:49.357Z,6.93
2022-10-23T12:38:19.039Z,5.72
2022-10-23T12:40:47.294Z,6.47
2022-10-23T12:43:26.081Z,9.02
2022-10-23T12:45:55.305Z,7.05
2022-10-23T12:48:23.615Z,6.07
2022-10-23T12:50:52.127Z,11.05
2022-10-23T12:53:20.430Z,9.43
2022-10-23T12:55:49.533Z,5.45
2022-10-23T12:58:24.271Z,5.72
2022-10-23T13:00:52.542Z,5.30
2022-10-23T13:03:21.605Z,5.05
2022-10-23T13:05:50.314Z,4.00
2022-10-23T13:08:18.925Z,6.55
2022-10-23T13:10:47.179Z,5.97
2022-10-23T13:13:15.265Z,8.45
2022-10-23T13:15:45.066Z,7.45
2022-10-23T13:18:14.239Z,4.00
2022-10-23T13:20:43.219Z,7.55
2022-10-23T13:23:12.409Z,4.22
2022-10-23T13:25:40.544Z,6.72
2022-10-23T13:28:21.410Z,6.47
2022-10-23T13:31:00.353Z,6.10
2022-10-23T13:33:32.345Z,6.75
2022-10-23T13:36:00.783Z,3.80
2022-10-23T13:38:32.598Z,4.63
2022-10-23T13:41:00.919Z,3.53
2022-10-23T13:43:30.745Z,4.93
2022-10-23T13:46:00.367Z,10.50
2022-10-23T13:48:28.327Z,7.40
2022-10-23T13:50:59.509Z,6.65
2022-10-23T13:53:27.201Z,4.85
2022-10-23T13:55:57.870Z,6.25
2022-10-23T13:58:26.472Z,5.63
2022-10-23T14:00:54.942Z,5.90
2022-10-23T14:03:24.471Z,8.27
2022-10-23T14:05:52.141Z,6.35
2022-10-23T14:08:20.387Z,7.32
2022-10-23T14:10:48.271Z,11.95
2022-10-23T14:13:16.015Z,7.30
2022-10-23T14:15:43.721Z,5.70
2022-10-23T14:18:11.481Z,6.88
2022-10-23T14:20:40.578Z,6.53
2022-10-23T14:23:08.270Z,6.65
2022-10-23T14:25:36.006Z,7.85
2022-10-23T14:28:14.086Z,7.97
2022-10-23T14:30:45.122Z,7.03
2022-10-23T14:33:13.085Z,5.78
2022-10-23T14:35:52.496Z,5.35
2022-10-23T14:38:23.511Z,5.68
2022-10-23T14:40:53.116Z,7.07
2022-10-23T14:43:20.856Z,9.50
2022-10-23T14:45:48.554Z,6.53
2022-10-23T14:48:16.307Z,7.93
2022-10-23T14:50:46.221Z,6.38
2022-10-23T14:53:13.958Z,6.13
2022-10-23T14:55:41.610Z,10.70
2022-10-23T14:58:09.371Z,6.75
2022-10-23T15:00:39.780Z,9.18
2022-10-23T15:03:07.483Z,9.80
2022-10-23T15:05:35.183Z,8.52
2022-10-23T15:08:04.278Z,9.88
2022-10-23T15:10:31.897Z,9.40
2022-10-23T15:12:59.712Z,6.53
2022-10-23T15:15:27.510Z,7.75
2022-10-23T15:17:57.056Z,9.93
2022-10-23T15:20:27.603Z,7.22
2022-10-23T15:22:55.363Z,7.57
2022-10-23T15:25:58.406Z,10.18
2022-10-23T15:28:26.188Z,8.18
2022-10-23T15:30:54.000Z,7.63
2022-10-23T15:33:22.155Z,7.50
2022-10-23T15:35:50.139Z,8.02
2022-10-23T15:38:17.967Z,10.43
2022-10-23T15:40:47.230Z,7.70
2022-10-23T15:43:14.992Z,8.15
2022-10-23T15:45:43.003Z,10.00
2022-10-23T15:48:10.871Z,8.73
2022-10-23T15:50:38.865Z,13.27
2022-10-23T15:53:06.847Z,9.38
2022-10-23T15:55:36.754Z,8.32
2022-10-23T15:58:11.596Z,10.80
2022-10-23T16:00:42.077Z,12.55
2022-10-23T16:03:09.838Z,7.68
2022-10-23T16:05:37.924Z,8.18
2022-10-23T16:08:06.668Z,7.85
2022-10-23T16:10:42.064Z,9.85
2022-10-23T16:13:11.270Z,10.15
2022-10-23T16:15:39.496Z,8.40
2022-10-23T16:18:08.967Z,8.93
2022-10-23T16:20:36.698Z,10.13
2022-10-23T16:23:04.352Z,10.63
2022-10-23T16:28:00.693Z,13.05
2022-10-23T16:30:30.050Z,10.93
2022-10-23T16:33:00.556Z,9.48
2022-10-23T16:35:31.133Z,13.32
2022-10-23T16:38:01.265Z,11.80
2022-10-23T16:40:29.049Z,13.45
2022-10-23T16:42:59.540Z,11.75
2022-10-23T16:45:27.261Z,13.60
2022-10-23T16:47:56.515Z,13.93
2022-10-23T16:50:29.342Z,12.80
2022-10-23T16:52:57.063Z,16.30
2022-10-23T16:55:24.780Z,13.63
2022-10-23T16:57:57.804Z,14.30
2022-10-23T17:00:34.946Z,17.45
2022-10-23T17:03:11.253Z,14.23
2022-10-23T17:05:39.072Z,13.93
2022-10-23T17:08:06.958Z,12.15
2022-10-23T17:10:47.580Z,11.93
2022-10-23T17:13:15.535Z,16.60
2022-10-23T17:15:43.416Z,13.48
2022-10-23T17:18:12.516Z,15.02
2022-10-23T17:20:40.154Z,10.57
2022-10-23T17:23:08.031Z,11.55
2022-10-23T17:25:37.983Z,15.85
2022-10-23T17:28:07.573Z,11.57
2022-10-23T17:30:40.025Z,15.63
2022-10-23T17:33:07.843Z,14.27
2022-10-23T17:35:37.740Z,13.38
2022-10-23T17:38:09.087Z,9.20
2022-10-23T17:40:36.791Z,21.25
2022-10-23T17:43:05.135Z,14.23
2022-10-23T17:45:35.774Z,13.55
2022-10-23T17:48:06.286Z,13.13
2022-10-23T17:50:33.833Z,33.33
2022-10-23T17:53:02.701Z,9.48
2022-10-23T17:55:30.475Z,12.13
2022-10-23T17:57:58.738Z,14.38
2022-10-23T18:00:26.422Z,18.48
2022-10-23T18:02:53.928Z,9.82
2022-10-23T18:05:21.826Z,11.02
2022-10-23T18:07:50.223Z,10.40
2022-10-23T18:10:19.083Z,8.50
2022-10-23T18:12:47.009Z,13.63
2022-10-23T18:15:14.633Z,12.00
2022-10-23T18:17:42.510Z,12.73
2022-10-23T18:20:11.989Z,19.30
2022-10-23T18:22:39.875Z,9.85
2022-10-23T18:25:10.151Z,11.63
2022-10-23T18:27:39.776Z,13.30
2022-10-23T18:30:07.867Z,9.10
2022-10-23T18:32:35.402Z,9.02
2022-10-23T18:35:03.026Z,11.48
2022-10-23T18:37:33.855Z,13.88
2022-10-23T18:40:04.432Z,14.68
2022-10-23T18:42:34.279Z,9.15
2022-10-23T18:45:03.254Z,11.38
2022-10-23T18:47:32.664Z,9.45
2022-10-23T18:50:00.219Z,11.80
2022-10-23T18:52:28.052Z,11.02
2022-10-23T18:54:55.667Z,11.68
2022-10-23T18:57:26.545Z,15.02
2022-10-23T18:59:58.284Z,14.80
2022-10-23T19:02:31.431Z,12.20
2022-10-23T19:05:00.230Z,10.55
2022-10-23T19:08:04.571Z,10.77
2022-10-23T19:10:37.124Z,12.70
2022-10-23T19:13:06.892Z,14.52
2022-10-23T19:15:35.656Z,13.10
2022-10-23T19:18:07.547Z,12.82
2022-10-23T19:20:35.058Z,10.70
2022-10-23T19:23:03.450Z,8.63
2022-10-23T19:25:32.632Z,11.95
2022-10-23T19:28:02.980Z,10.38
2022-10-23T19:30:30.920Z,12.90
2022-10-23T19:32:58.801Z,8.48
2022-10-23T19:35:27.874Z,11.18
2022-10-23T19:37:55.373Z,10.68
2022-10-23T19:40:52.998Z,10.82
2022-10-23T19:43:26.504Z,8.40
2022-10-23T19:46:00.301Z,7.70
2022-10-23T19:48:44.490Z,8.82
2022-10-23T19:51:14.020Z,9.82
2022-10-23T19:53:43.277Z,8.38
2022-10-23T19:56:15.601Z,21.60
2022-10-23T19:58:43.303Z,12.63
2022-10-23T20:01:12.208Z,8.70
2022-10-23T20:03:40.289Z,10.52
2022-10-23T20:06:09.343Z,10.82
2022-10-23T20:08:39.203Z,12.43
2022-10-23T20:11:07.372Z,12.00
2022-10-23T20:13:35.072Z,8.85
2022-10-23T20:16:02.724Z,11.23
2022-10-23T20:18:30.280Z,9.88
2022-10-23T20:20:57.944Z,12.80
2022-10-23T20:23:27.231Z,7.38
2022-10-23T20:25:56.241Z,10.25
2022-10-23T20:28:24.066Z,9.70
2022-10-23T20:30:51.637Z,16.58
2022-10-23T20:33:24.366Z,13.85
2022-10-23T20:36:00.895Z,8.70
2022-10-23T20:38:28.410Z,12.45
2022-10-23T20:41:04.164Z,12.82
2022-10-23T20:43:32.295Z,13.00
2022-10-23T20:46:05.181Z,11.70
2022-10-23T20:48:35.353Z,11.15
2022-10-23T20:51:03.536Z,7.82
2022-10-23T20:53:31.138Z,10.07
2022-10-23T20:56:06.337Z,13.75
2022-10-23T20:58:33.881Z,11.65
2022-10-23T21:01:03.645Z,11.90
2022-10-23T21:03:31.382Z,9.15
2022-10-23T21:06:05.716Z,10.15
2022-10-23T21:11:00.914Z,12.65
2022-10-23T21:13:33.397Z,10.82
2022-10-23T21:16:02.155Z,13.20
2022-10-23T21:18:44.921Z,11.35
2022-10-23T21:21:14.074Z,13.00
2022-10-23T21:23:41.587Z,11.45
2022-10-23T21:26:10.429Z,11.38
2022-10-23T21:28:41.750Z,12.82
2022-10-23T21:31:18.304Z,12.43
2022-10-23T21:33:47.059Z,9.52
2022-10-23T21:36:17.393Z,10.98
2022-10-23T21:38:45.015Z,13.75
2022-10-23T21:41:13.378Z,12.02
2022-10-23T21:43:42.268Z,12.05
2022-10-23T21:46:12.315Z,10.35
2022-10-23T21:48:39.920Z,13.95
2022-10-23T21:51:07.772Z,14.10
2022-10-23T21:53:35.580Z,13.10
2022-10-23T21:56:04.590Z,11.65
2022-10-23T21:58:32.203Z,8.05
2022-10-23T22:01:01.222Z,9.93
2022-10-23T22:03:28.868Z,13.20
2022-10-23T22:05:58.779Z,11.43
2022-10-23T22:08:26.354Z,9.65
2022-10-23T22:10:54.109Z,12.02
2022-10-23T22:13:21.607Z,12.00
2022-10-23T22:15:49.206Z,11.13
2022-10-23T22:18:18.096Z,10.10
2022-10-23T22:20:45.650Z,11.73
2022-10-23T22:23:14.402Z,9.00
2022-10-23T22:25:42.355Z,17.40
2022-10-23T22:28:11.272Z,13.13
2022-10-23T22:30:38.907Z,12.13
2022-10-23T22:33:06.490Z,12.65
2022-10-23T22:35:35.421Z,11.65
2022-10-23T22:38:02.892Z,13.13
2022-10-23T22:40:31.047Z,14.05
2022-10-23T22:43:00.164Z,12.60
2022-10-23T22:45:27.673Z,13.95
2022-10-23T22:47:55.169Z,14.13
2022-10-23T22:50:22.700Z,12.13
2022-10-23T22:52:51.556Z,9.98
2022-10-23T22:55:19.015Z,12.15
2022-10-23T22:57:46.770Z,12.52
2022-10-23T23:00:14.985Z,10.90
2022-10-23T23:02:44.669Z,12.40
2022-10-23T23:05:12.986Z,12.02
2022-10-23T23:07:40.503Z,13.57
2022-10-23T23:10:09.751Z,15.07
2022-10-23T23:12:37.963Z,12.23
2022-10-23T23:15:06.566Z,12.23
2022-10-23T23:17:34.165Z,11.57
2022-10-23T23:20:01.652Z,10.18
2022-10-23T23:22:29.153Z,13.55
2022-10-23T23:24:56.810Z,10.23
2022-10-23T23:27:27.135Z,9.55
2022-10-23T23:29:57.616Z,8.63
2022-10-23T23:32:25.138Z,13.23
2022-10-23T23:34:52.641Z,11.23
2022-10-23T23:37:20.145Z,10.60
2022-10-23T23:39:48.514Z,8.90
2022-10-23T23:42:15.990Z,8.82
2022-10-23T23:44:55.815Z,11.70
2022-10-23T23:47:30.649Z,9.75
2022-10-23T23:50:00.227Z,10.85
2022-10-23T23:52:27.746Z,11.43
2022-10-23T23:54:55.263Z,10.05
2022-10-23T23:57:22.811Z,11.32
2022-10-23T23:59:51.650Z,12.90
